sensor_id;sensor_type;location;lat;lon;timestamp;P1;durP1;ratioP1;P2;durP2;ratioP2
12597;SDS011;6364;53.590;9.956;2022-10-16T00:00:33;13.70;;;9.98;;
12597;SDS011;6364;53.590;9.956;2022-10-16T00:02:59;13.88;;;9.88;;
12597;SDS011;6364;53.590;9.956;2022-10-16T00:05:25;13.55;;;9.30;;
12597;SDS011;6364;53.590;9.956;2022-10-16T00:07:50;13.73;;;9.18;;
12597;SDS011;6364;53.590;9.956;2022-10-16T00:10:16;14.18;;;9.10;;
12597;SDS011;6364;53.590;9.956;2022-10-16T00:12:41;11.38;;;8.75;;
12597;SDS011;6364;53.590;9.956;2022-10-16T00:15:06;12.25;;;8.13;;
12597;SDS011;6364;53.590;9.956;2022-10-16T00:17:32;11.38;;;8.05;;
12597;SDS011;6364;53.590;9.956;2022-10-16T00:19:58;10.20;;;7.78;;
12597;SDS011;6364;53.590;9.956;2022-10-16T00:22:23;12.07;;;7.65;;
12597;SDS011;6364;53.590;9.956;2022-10-16T00:24:49;8.55;;;6.30;;
12597;SDS011;6364;53.590;9.956;2022-10-16T00:27:14;7.95;;;6.07;;
12597;SDS011;6364;53.590;9.956;2022-10-16T00:29:40;7.25;;;5.93;;
12597;SDS011;6364;53.590;9.956;2022-10-16T00:32:05;9.60;;;5.90;;
12597;SDS011;6364;53.590;9.956;2022-10-16T00:34:30;8.82;;;5.38;;
12597;SDS011;6364;53.590;9.956;2022-10-16T00:36:56;6.70;;;4.88;;
12597;SDS011;6364;53.590;9.956;2022-10-16T00:39:21;7.72;;;4.90;;
12597;SDS011;6364;53.590;9.956;2022-10-16T00:41:47;10.13;;;4.15;;
12597;SDS011;6364;53.590;9.956;2022-10-16T00:47:19;7.32;;;3.88;;
12597;SDS011;6364;53.590;9.956;2022-10-16T00:49:50;7.63;;;4.00;;
12597;SDS011;6364;53.590;9.956;2022-10-16T00:52:17;6.55;;;3.63;;
12597;SDS011;6364;53.590;9.956;2022-10-16T00:54:42;7.18;;;3.50;;
12597;SDS011;6364;53.590;9.956;2022-10-16T00:57:08;7.28;;;4.13;;
12597;SDS011;6364;53.590;9.956;2022-10-16T00:59:35;8.80;;;3.63;;
12597;SDS011;6364;53.590;9.956;2022-10-16T01:02:04;7.00;;;3.55;;
12597;SDS011;6364;53.590;9.956;2022-10-16T01:04:32;5.93;;;3.22;;
12597;SDS011;6364;53.590;9.956;2022-10-16T01:09:33;8.88;;;3.85;;
12597;SDS011;6364;53.590;9.956;2022-10-16T01:17:59;12.27;;;3.38;;
12597;SDS011;6364;53.590;9.956;2022-10-16T01:20:31;6.88;;;3.00;;
12597;SDS011;6364;53.590;9.956;2022-10-16T01:31:18;8.80;;;3.28;;
12597;SDS011;6364;53.590;9.956;2022-10-16T01:33:46;5.70;;;3.08;;
12597;SDS011;6364;53.590;9.956;2022-10-16T01:36:17;7.15;;;2.63;;
12597;SDS011;6364;53.590;9.956;2022-10-16T01:38:47;7.63;;;2.50;;
12597;SDS011;6364;53.590;9.956;2022-10-16T01:41:17;6.30;;;2.35;;
12597;SDS011;6364;53.590;9.956;2022-10-16T01:46:33;6.63;;;2.70;;
12597;SDS011;6364;53.590;9.956;2022-10-16T01:49:00;6.72;;;2.60;;
12597;SDS011;6364;53.590;9.956;2022-10-16T01:51:26;4.97;;;2.30;;
12597;SDS011;6364;53.590;9.956;2022-10-16T01:53:53;5.13;;;2.58;;
12597;SDS011;6364;53.590;9.956;2022-10-16T01:56:19;5.57;;;2.78;;
12597;SDS011;6364;53.590;9.956;2022-10-16T01:58:49;7.93;;;2.60;;
12597;SDS011;6364;53.590;9.956;2022-10-16T02:01:18;5.80;;;2.55;;
12597;SDS011;6364;53.590;9.956;2022-10-16T02:03:48;4.30;;;2.50;;
12597;SDS011;6364;53.590;9.956;2022-10-16T02:06:15;5.53;;;2.38;;
12597;SDS011;6364;53.590;9.956;2022-10-16T02:08:40;5.68;;;2.63;;
12597;SDS011;6364;53.590;9.956;2022-10-16T02:11:09;3.40;;;2.40;;
12597;SDS011;6364;53.590;9.956;2022-10-16T02:16:10;6.82;;;2.28;;
12597;SDS011;6364;53.590;9.956;2022-10-16T02:18:37;4.35;;;2.50;;
12597;SDS011;6364;53.590;9.956;2022-10-16T02:24:22;4.55;;;2.45;;
12597;SDS011;6364;53.590;9.956;2022-10-16T02:26:52;7.07;;;2.30;;
12597;SDS011;6364;53.590;9.956;2022-10-16T02:29:33;4.45;;;2.35;;
12597;SDS011;6364;53.590;9.956;2022-10-16T02:32:03;6.30;;;2.22;;
12597;SDS011;6364;53.590;9.956;2022-10-16T02:34:30;5.32;;;2.40;;
12597;SDS011;6364;53.590;9.956;2022-10-16T02:36:57;3.22;;;2.08;;
12597;SDS011;6364;53.590;9.956;2022-10-16T02:39:23;5.28;;;2.70;;
12597;SDS011;6364;53.590;9.956;2022-10-16T02:41:49;4.05;;;2.40;;
12597;SDS011;6364;53.590;9.956;2022-10-16T02:44:14;3.95;;;1.85;;
12597;SDS011;6364;53.590;9.956;2022-10-16T02:46:40;10.20;;;2.38;;
12597;SDS011;6364;53.590;9.956;2022-10-16T02:49:05;5.70;;;1.77;;
12597;SDS011;6364;53.590;9.956;2022-10-16T02:51:30;7.10;;;2.65;;
12597;SDS011;6364;53.590;9.956;2022-10-16T02:53:56;5.63;;;2.03;;
12597;SDS011;6364;53.590;9.956;2022-10-16T02:56:21;4.60;;;2.00;;
12597;SDS011;6364;53.590;9.956;2022-10-16T02:58:46;7.22;;;1.95;;
12597;SDS011;6364;53.590;9.956;2022-10-16T03:01:12;3.63;;;1.90;;
12597;SDS011;6364;53.590;9.956;2022-10-16T03:03:39;3.80;;;2.05;;
12597;SDS011;6364;53.590;9.956;2022-10-16T03:06:04;6.05;;;2.13;;
12597;SDS011;6364;53.590;9.956;2022-10-16T03:08:30;5.38;;;2.05;;
12597;SDS011;6364;53.590;9.956;2022-10-16T03:10:56;7.13;;;2.60;;
12597;SDS011;6364;53.590;9.956;2022-10-16T03:13:21;6.50;;;2.35;;
12597;SDS011;6364;53.590;9.956;2022-10-16T03:15:47;3.45;;;2.20;;
12597;SDS011;6364;53.590;9.956;2022-10-16T03:18:12;5.57;;;2.40;;
12597;SDS011;6364;53.590;9.956;2022-10-16T03:20:38;5.47;;;2.50;;
12597;SDS011;6364;53.590;9.956;2022-10-16T03:23:03;7.03;;;2.67;;
12597;SDS011;6364;53.590;9.956;2022-10-16T03:25:28;5.05;;;2.20;;
12597;SDS011;6364;53.590;9.956;2022-10-16T03:27:54;3.20;;;2.20;;
12597;SDS011;6364;53.590;9.956;2022-10-16T03:30:19;3.15;;;1.98;;
12597;SDS011;6364;53.590;9.956;2022-10-16T03:32:45;7.05;;;2.08;;
12597;SDS011;6364;53.590;9.956;2022-10-16T03:35:10;6.47;;;2.90;;
12597;SDS011;6364;53.590;9.956;2022-10-16T03:37:36;6.45;;;2.35;;
12597;SDS011;6364;53.590;9.956;2022-10-16T03:40:02;10.50;;;2.13;;
12597;SDS011;6364;53.590;9.956;2022-10-16T03:42:28;3.72;;;2.08;;
12597;SDS011;6364;53.590;9.956;2022-10-16T03:44:53;6.82;;;2.85;;
12597;SDS011;6364;53.590;9.956;2022-10-16T03:47:18;6.97;;;2.33;;
12597;SDS011;6364;53.590;9.956;2022-10-16T03:49:46;4.20;;;1.80;;
12597;SDS011;6364;53.590;9.956;2022-10-16T03:52:12;7.45;;;2.13;;
12597;SDS011;6364;53.590;9.956;2022-10-16T03:54:38;2.58;;;1.98;;
12597;SDS011;6364;53.590;9.956;2022-10-16T03:57:03;4.40;;;2.00;;
12597;SDS011;6364;53.590;9.956;2022-10-16T03:59:28;4.13;;;2.05;;
12597;SDS011;6364;53.590;9.956;2022-10-16T04:01:54;6.22;;;2.20;;
12597;SDS011;6364;53.590;9.956;2022-10-16T04:04:19;6.00;;;2.10;;
12597;SDS011;6364;53.590;9.956;2022-10-16T04:06:44;3.40;;;1.88;;
12597;SDS011;6364;53.590;9.956;2022-10-16T04:09:10;7.10;;;1.80;;
12597;SDS011;6364;53.590;9.956;2022-10-16T04:11:35;4.82;;;2.03;;
12597;SDS011;6364;53.590;9.956;2022-10-16T04:14:00;7.35;;;1.85;;
12597;SDS011;6364;53.590;9.956;2022-10-16T04:16:26;3.20;;;1.85;;
12597;SDS011;6364;53.590;9.956;2022-10-16T04:18:51;5.82;;;2.22;;
12597;SDS011;6364;53.590;9.956;2022-10-16T04:21:16;4.68;;;2.03;;
12597;SDS011;6364;53.590;9.956;2022-10-16T04:23:42;6.80;;;2.50;;
12597;SDS011;6364;53.590;9.956;2022-10-16T04:26:07;3.75;;;1.80;;
12597;SDS011;6364;53.590;9.956;2022-10-16T04:28:33;3.22;;;1.90;;
12597;SDS011;6364;53.590;9.956;2022-10-16T04:30:58;11.30;;;2.38;;
12597;SDS011;6364;53.590;9.956;2022-10-16T04:33:23;5.70;;;2.03;;
12597;SDS011;6364;53.590;9.956;2022-10-16T04:35:55;7.68;;;2.50;;
12597;SDS011;6364;53.590;9.956;2022-10-16T04:38:21;4.90;;;2.10;;
12597;SDS011;6364;53.590;9.956;2022-10-16T04:40:46;6.28;;;2.05;;
12597;SDS011;6364;53.590;9.956;2022-10-16T04:43:12;5.85;;;2.17;;
12597;SDS011;6364;53.590;9.956;2022-10-16T04:45:37;3.50;;;2.00;;
12597;SDS011;6364;53.590;9.956;2022-10-16T04:48:03;5.70;;;1.98;;
12597;SDS011;6364;53.590;9.956;2022-10-16T04:50:28;4.10;;;2.28;;
12597;SDS011;6364;53.590;9.956;2022-10-16T04:52:53;6.35;;;2.63;;
12597;SDS011;6364;53.590;9.956;2022-10-16T04:55:19;3.75;;;2.35;;
12597;SDS011;6364;53.590;9.956;2022-10-16T04:57:44;8.30;;;2.47;;
12597;SDS011;6364;53.590;9.956;2022-10-16T05:00:10;6.00;;;2.38;;
12597;SDS011;6364;53.590;9.956;2022-10-16T05:02:36;4.35;;;2.55;;
12597;SDS011;6364;53.590;9.956;2022-10-16T05:05:01;6.85;;;2.92;;
12597;SDS011;6364;53.590;9.956;2022-10-16T05:07:27;9.27;;;3.78;;
12597;SDS011;6364;53.590;9.956;2022-10-16T05:09:52;7.07;;;3.47;;
12597;SDS011;6364;53.590;9.956;2022-10-16T05:12:18;6.63;;;3.38;;
12597;SDS011;6364;53.590;9.956;2022-10-16T05:14:43;5.20;;;3.20;;
12597;SDS011;6364;53.590;9.956;2022-10-16T05:17:09;6.57;;;3.25;;
12597;SDS011;6364;53.590;9.956;2022-10-16T05:19:34;5.97;;;2.92;;
12597;SDS011;6364;53.590;9.956;2022-10-16T05:22:00;6.45;;;3.35;;
12597;SDS011;6364;53.590;9.956;2022-10-16T05:24:25;10.02;;;3.47;;
12597;SDS011;6364;53.590;9.956;2022-10-16T05:26:51;5.05;;;3.20;;
12597;SDS011;6364;53.590;9.956;2022-10-16T05:29:16;8.38;;;3.88;;
12597;SDS011;6364;53.590;9.956;2022-10-16T05:31:42;8.48;;;3.65;;
12597;SDS011;6364;53.590;9.956;2022-10-16T05:34:07;8.48;;;3.47;;
12597;SDS011;6364;53.590;9.956;2022-10-16T05:36:32;10.98;;;3.35;;
12597;SDS011;6364;53.590;9.956;2022-10-16T05:38:58;8.30;;;3.33;;
12597;SDS011;6364;53.590;9.956;2022-10-16T05:41:23;8.30;;;3.53;;
12597;SDS011;6364;53.590;9.956;2022-10-16T05:43:50;6.75;;;3.83;;
12597;SDS011;6364;53.590;9.956;2022-10-16T05:46:16;8.88;;;3.75;;
12597;SDS011;6364;53.590;9.956;2022-10-16T05:48:42;9.30;;;3.53;;
12597;SDS011;6364;53.590;9.956;2022-10-16T05:51:09;10.75;;;3.13;;
12597;SDS011;6364;53.590;9.956;2022-10-16T05:53:37;6.78;;;3.53;;
12597;SDS011;6364;53.590;9.956;2022-10-16T05:56:03;6.47;;;3.08;;
12597;SDS011;6364;53.590;9.956;2022-10-16T05:58:34;10.27;;;3.58;;
12597;SDS011;6364;53.590;9.956;2022-10-16T06:01:04;7.00;;;3.50;;
12597;SDS011;6364;53.590;9.956;2022-10-16T06:03:31;12.65;;;3.65;;
12597;SDS011;6364;53.590;9.956;2022-10-16T06:05:57;6.45;;;3.10;;
12597;SDS011;6364;53.590;9.956;2022-10-16T06:08:23;5.65;;;3.40;;
12597;SDS011;6364;53.590;9.956;2022-10-16T06:10:48;5.93;;;3.08;;
12597;SDS011;6364;53.590;9.956;2022-10-16T06:13:14;5.72;;;3.03;;
12597;SDS011;6364;53.590;9.956;2022-10-16T06:15:41;5.32;;;3.20;;
12597;SDS011;6364;53.590;9.956;2022-10-16T06:18:07;9.32;;;3.13;;
12597;SDS011;6364;53.590;9.956;2022-10-16T06:20:33;7.03;;;3.15;;
12597;SDS011;6364;53.590;9.956;2022-10-16T06:22:59;6.93;;;3.38;;
12597;SDS011;6364;53.590;9.956;2022-10-16T06:25:24;7.18;;;3.22;;
12597;SDS011;6364;53.590;9.956;2022-10-16T06:27:49;4.32;;;3.00;;
12597;SDS011;6364;53.590;9.956;2022-10-16T06:30:15;7.03;;;3.47;;
12597;SDS011;6364;53.590;9.956;2022-10-16T06:32:40;6.95;;;3.60;;
12597;SDS011;6364;53.590;9.956;2022-10-16T06:35:05;5.90;;;3.42;;
12597;SDS011;6364;53.590;9.956;2022-10-16T06:37:31;7.63;;;3.63;;
12597;SDS011;6364;53.590;9.956;2022-10-16T06:39:56;8.82;;;3.40;;
12597;SDS011;6364;53.590;9.956;2022-10-16T06:42:22;8.75;;;3.22;;
12597;SDS011;6364;53.590;9.956;2022-10-16T06:44:47;5.45;;;2.67;;
12597;SDS011;6364;53.590;9.956;2022-10-16T06:47:12;5.88;;;3.53;;
12597;SDS011;6364;53.590;9.956;2022-10-16T06:49:38;6.72;;;3.35;;
12597;SDS011;6364;53.590;9.956;2022-10-16T06:52:03;6.55;;;3.15;;
12597;SDS011;6364;53.590;9.956;2022-10-16T06:54:29;9.32;;;3.28;;
12597;SDS011;6364;53.590;9.956;2022-10-16T06:56:54;7.20;;;3.25;;
12597;SDS011;6364;53.590;9.956;2022-10-16T06:59:23;9.18;;;3.55;;
12597;SDS011;6364;53.590;9.956;2022-10-16T07:01:48;7.30;;;3.83;;
12597;SDS011;6364;53.590;9.956;2022-10-16T07:04:13;5.60;;;3.38;;
12597;SDS011;6364;53.590;9.956;2022-10-16T07:06:39;4.80;;;3.50;;
12597;SDS011;6364;53.590;9.956;2022-10-16T07:09:06;5.75;;;3.28;;
12597;SDS011;6364;53.590;9.956;2022-10-16T07:11:33;6.78;;;3.38;;
12597;SDS011;6364;53.590;9.956;2022-10-16T07:13:59;8.85;;;3.78;;
12597;SDS011;6364;53.590;9.956;2022-10-16T07:16:27;5.38;;;3.47;;
12597;SDS011;6364;53.590;9.956;2022-10-16T07:18:58;7.22;;;3.80;;
12597;SDS011;6364;53.590;9.956;2022-10-16T07:21:29;6.35;;;3.70;;
12597;SDS011;6364;53.590;9.956;2022-10-16T07:24:00;8.93;;;3.50;;
12597;SDS011;6364;53.590;9.956;2022-10-16T07:26:29;6.70;;;3.70;;
12597;SDS011;6364;53.590;9.956;2022-10-16T07:28:56;6.55;;;3.70;;
12597;SDS011;6364;53.590;9.956;2022-10-16T07:31:22;6.57;;;4.20;;
12597;SDS011;6364;53.590;9.956;2022-10-16T07:33:48;5.78;;;3.47;;
12597;SDS011;6364;53.590;9.956;2022-10-16T07:36:14;7.38;;;3.75;;
12597;SDS011;6364;53.590;9.956;2022-10-16T07:38:40;7.35;;;3.40;;
12597;SDS011;6364;53.590;9.956;2022-10-16T07:41:07;7.55;;;3.58;;
12597;SDS011;6364;53.590;9.956;2022-10-16T07:43:35;7.15;;;3.78;;
12597;SDS011;6364;53.590;9.956;2022-10-16T07:46:00;8.77;;;3.50;;
12597;SDS011;6364;53.590;9.956;2022-10-16T07:48:27;5.65;;;3.30;;
12597;SDS011;6364;53.590;9.956;2022-10-16T07:50:56;7.30;;;3.90;;
12597;SDS011;6364;53.590;9.956;2022-10-16T07:53:23;6.35;;;3.63;;
12597;SDS011;6364;53.590;9.956;2022-10-16T07:55:48;6.05;;;3.90;;
12597;SDS011;6364;53.590;9.956;2022-10-16T07:58:13;5.07;;;3.40;;
12597;SDS011;6364;53.590;9.956;2022-10-16T08:00:38;9.20;;;3.92;;
12597;SDS011;6364;53.590;9.956;2022-10-16T08:03:04;6.32;;;3.70;;
12597;SDS011;6364;53.590;9.956;2022-10-16T08:05:29;5.20;;;3.55;;
12597;SDS011;6364;53.590;9.956;2022-10-16T08:07:56;7.10;;;4.05;;
12597;SDS011;6364;53.590;9.956;2022-10-16T08:10:22;6.47;;;4.05;;
12597;SDS011;6364;53.590;9.956;2022-10-16T08:12:49;7.20;;;3.75;;
12597;SDS011;6364;53.590;9.956;2022-10-16T08:15:14;9.07;;;3.30;;
12597;SDS011;6364;53.590;9.956;2022-10-16T08:17:40;10.77;;;3.75;;
12597;SDS011;6364;53.590;9.956;2022-10-16T08:20:05;7.18;;;3.58;;
12597;SDS011;6364;53.590;9.956;2022-10-16T08:22:31;9.52;;;3.72;;
12597;SDS011;6364;53.590;9.956;2022-10-16T08:24:56;6.60;;;3.85;;
12597;SDS011;6364;53.590;9.956;2022-10-16T08:27:21;4.72;;;3.85;;
12597;SDS011;6364;53.590;9.956;2022-10-16T08:29:48;8.30;;;3.88;;
12597;SDS011;6364;53.590;9.956;2022-10-16T08:32:13;4.72;;;3.58;;
12597;SDS011;6364;53.590;9.956;2022-10-16T08:34:39;5.30;;;3.60;;
12597;SDS011;6364;53.590;9.956;2022-10-16T08:37:04;10.32;;;4.07;;
12597;SDS011;6364;53.590;9.956;2022-10-16T08:39:29;7.70;;;3.83;;
12597;SDS011;6364;53.590;9.956;2022-10-16T08:50:09;5.60;;;3.27;;
12597;SDS011;6364;53.590;9.956;2022-10-16T08:52:34;5.72;;;3.28;;
12597;SDS011;6364;53.590;9.956;2022-10-16T08:55:00;6.82;;;3.65;;
12597;SDS011;6364;53.590;9.956;2022-10-16T08:57:27;7.03;;;3.50;;
12597;SDS011;6364;53.590;9.956;2022-10-16T08:59:53;5.95;;;3.47;;
12597;SDS011;6364;53.590;9.956;2022-10-16T09:16:21;5.88;;;2.58;;
12597;SDS011;6364;53.590;9.956;2022-10-16T09:21:36;5.03;;;2.10;;
12597;SDS011;6364;53.590;9.956;2022-10-16T09:24:08;8.13;;;2.30;;
12597;SDS011;6364;53.590;9.956;2022-10-16T09:26:36;4.13;;;1.98;;
12597;SDS011;6364;53.590;9.956;2022-10-16T09:29:02;3.00;;;1.98;;
12597;SDS011;6364;53.590;9.956;2022-10-16T09:31:27;3.00;;;2.08;;
12597;SDS011;6364;53.590;9.956;2022-10-16T09:33:59;4.75;;;2.10;;
12597;SDS011;6364;53.590;9.956;2022-10-16T09:36:25;5.13;;;2.00;;
12597;SDS011;6364;53.590;9.956;2022-10-16T09:39:03;5.88;;;2.10;;
12597;SDS011;6364;53.590;9.956;2022-10-16T09:41:30;2.95;;;1.73;;
12597;SDS011;6364;53.590;9.956;2022-10-16T09:43:56;9.13;;;2.15;;
12597;SDS011;6364;53.590;9.956;2022-10-16T09:48:55;5.00;;;1.85;;
12597;SDS011;6364;53.590;9.956;2022-10-16T09:51:29;4.20;;;1.65;;
12597;SDS011;6364;53.590;9.956;2022-10-16T09:53:59;2.85;;;1.38;;
12597;SDS011;6364;53.590;9.956;2022-10-16T09:56:32;6.80;;;1.90;;
12597;SDS011;6364;53.590;9.956;2022-10-16T09:59:10;4.55;;;2.03;;
12597;SDS011;6364;53.590;9.956;2022-10-16T10:01:49;4.40;;;1.75;;
12597;SDS011;6364;53.590;9.956;2022-10-16T10:04:16;2.90;;;1.60;;
12597;SDS011;6364;53.590;9.956;2022-10-16T10:09:18;7.93;;;2.22;;
12597;SDS011;6364;53.590;9.956;2022-10-16T10:11:46;3.88;;;1.55;;
12597;SDS011;6364;53.590;9.956;2022-10-16T10:17:02;6.70;;;1.77;;
12597;SDS011;6364;53.590;9.956;2022-10-16T10:19:36;5.00;;;2.00;;
12597;SDS011;6364;53.590;9.956;2022-10-16T10:22:17;4.80;;;2.00;;
12597;SDS011;6364;53.590;9.956;2022-10-16T10:24:54;5.45;;;1.90;;
12597;SDS011;6364;53.590;9.956;2022-10-16T10:27:20;7.43;;;2.20;;
12597;SDS011;6364;53.590;9.956;2022-10-16T10:35:44;5.45;;;1.90;;
12597;SDS011;6364;53.590;9.956;2022-10-16T10:38:17;4.00;;;1.77;;
12597;SDS011;6364;53.590;9.956;2022-10-16T10:41:09;5.47;;;1.83;;
12597;SDS011;6364;53.590;9.956;2022-10-16T10:46:13;3.53;;;1.52;;
12597;SDS011;6364;53.590;9.956;2022-10-16T10:54:13;5.47;;;1.50;;
12597;SDS011;6364;53.590;9.956;2022-10-16T11:02:58;4.47;;;1.65;;
12597;SDS011;6364;53.590;9.956;2022-10-16T11:06:11;6.70;;;1.60;;
12597;SDS011;6364;53.590;9.956;2022-10-16T11:08:53;4.38;;;1.38;;
12597;SDS011;6364;53.590;9.956;2022-10-16T11:11:24;5.13;;;1.40;;
12597;SDS011;6364;53.590;9.956;2022-10-16T11:14:14;5.38;;;1.58;;
12597;SDS011;6364;53.590;9.956;2022-10-16T11:16:53;4.10;;;1.50;;
12597;SDS011;6364;53.590;9.956;2022-10-16T11:22:09;7.85;;;1.45;;
12597;SDS011;6364;53.590;9.956;2022-10-16T11:24:54;4.25;;;1.20;;
12597;SDS011;6364;53.590;9.956;2022-10-16T11:27:33;4.03;;;1.15;;
12597;SDS011;6364;53.590;9.956;2022-10-16T11:30:02;5.15;;;1.05;;
12597;SDS011;6364;53.590;9.956;2022-10-16T11:32:38;3.35;;;1.20;;
12597;SDS011;6364;53.590;9.956;2022-10-16T11:35:17;8.43;;;1.20;;
12597;SDS011;6364;53.590;9.956;2022-10-16T11:37:47;2.40;;;1.25;;
12597;SDS011;6364;53.590;9.956;2022-10-16T11:40:17;6.22;;;2.00;;
12597;SDS011;6364;53.590;9.956;2022-10-16T11:42:52;6.60;;;1.67;;
12597;SDS011;6364;53.590;9.956;2022-10-16T11:45:24;3.80;;;1.10;;
12597;SDS011;6364;53.590;9.956;2022-10-16T11:48:00;4.13;;;1.00;;
12597;SDS011;6364;53.590;9.956;2022-10-16T11:50:40;3.83;;;1.35;;
12597;SDS011;6364;53.590;9.956;2022-10-16T11:53:21;5.75;;;1.20;;
12597;SDS011;6364;53.590;9.956;2022-10-16T11:55:48;5.15;;;1.10;;
12597;SDS011;6364;53.590;9.956;2022-10-16T12:03:29;5.05;;;1.55;;
12597;SDS011;6364;53.590;9.956;2022-10-16T12:08:59;5.90;;;1.50;;
12597;SDS011;6364;53.590;9.956;2022-10-16T12:13:51;5.40;;;1.40;;
12597;SDS011;6364;53.590;9.956;2022-10-16T12:18:42;3.90;;;1.50;;
12597;SDS011;6364;53.590;9.956;2022-10-16T12:21:09;6.55;;;1.50;;
12597;SDS011;6364;53.590;9.956;2022-10-16T12:23:48;5.72;;;1.20;;
12597;SDS011;6364;53.590;9.956;2022-10-16T12:26:23;4.53;;;1.30;;
12597;SDS011;6364;53.590;9.956;2022-10-16T12:28:52;7.18;;;1.42;;
12597;SDS011;6364;53.590;9.956;2022-10-16T12:31:17;5.38;;;1.48;;
12597;SDS011;6364;53.590;9.956;2022-10-16T12:33:51;5.97;;;1.55;;
12597;SDS011;6364;53.590;9.956;2022-10-16T12:36:31;4.80;;;1.33;;
12597;SDS011;6364;53.590;9.956;2022-10-16T12:38:58;5.82;;;1.38;;
12597;SDS011;6364;53.590;9.956;2022-10-16T12:41:34;6.70;;;1.33;;
12597;SDS011;6364;53.590;9.956;2022-10-16T12:44:02;4.45;;;1.30;;
12597;SDS011;6364;53.590;9.956;2022-10-16T12:48:53;6.20;;;1.43;;
12597;SDS011;6364;53.590;9.956;2022-10-16T13:10:15;4.85;;;1.55;;
12597;SDS011;6364;53.590;9.956;2022-10-16T13:15:57;3.72;;;1.20;;
12597;SDS011;6364;53.590;9.956;2022-10-16T13:24:29;7.35;;;1.40;;
12597;SDS011;6364;53.590;9.956;2022-10-16T13:30:08;4.63;;;1.75;;
12597;SDS011;6364;53.590;9.956;2022-10-16T13:32:43;3.88;;;1.10;;
12597;SDS011;6364;53.590;9.956;2022-10-16T13:35:21;3.95;;;1.10;;
12597;SDS011;6364;53.590;9.956;2022-10-16T13:37:48;3.75;;;1.13;;
12597;SDS011;6364;53.590;9.956;2022-10-16T13:40:23;10.50;;;1.63;;
12597;SDS011;6364;53.590;9.956;2022-10-16T13:42:50;6.68;;;1.27;;
12597;SDS011;6364;53.590;9.956;2022-10-16T13:45:25;7.78;;;1.45;;
12597;SDS011;6364;53.590;9.956;2022-10-16T13:48:01;4.85;;;1.30;;
12597;SDS011;6364;53.590;9.956;2022-10-16T13:50:27;7.35;;;1.45;;
12597;SDS011;6364;53.590;9.956;2022-10-16T13:53:02;3.80;;;1.48;;
12597;SDS011;6364;53.590;9.956;2022-10-16T13:55:31;4.93;;;1.63;;
12597;SDS011;6364;53.590;9.956;2022-10-16T13:58:14;8.10;;;1.70;;
12597;SDS011;6364;53.590;9.956;2022-10-16T14:00:40;6.93;;;1.65;;
12597;SDS011;6364;53.590;9.956;2022-10-16T14:03:12;4.97;;;1.42;;
12597;SDS011;6364;53.590;9.956;2022-10-16T14:05:49;3.90;;;1.15;;
12597;SDS011;6364;53.590;9.956;2022-10-16T14:08:15;2.63;;;1.10;;
12597;SDS011;6364;53.590;9.956;2022-10-16T14:10:41;4.95;;;1.13;;
12597;SDS011;6364;53.590;9.956;2022-10-16T14:13:07;6.70;;;1.70;;
12597;SDS011;6364;53.590;9.956;2022-10-16T14:15:37;6.35;;;1.60;;
12597;SDS011;6364;53.590;9.956;2022-10-16T14:18:03;5.00;;;1.20;;
12597;SDS011;6364;53.590;9.956;2022-10-16T14:20:32;5.85;;;1.20;;
12597;SDS011;6364;53.590;9.956;2022-10-16T14:22:59;6.25;;;1.30;;
12597;SDS011;6364;53.590;9.956;2022-10-16T14:25:29;9.32;;;1.50;;
12597;SDS011;6364;53.590;9.956;2022-10-16T14:28:00;6.35;;;1.30;;
12597;SDS011;6364;53.590;9.956;2022-10-16T14:30:27;5.63;;;1.35;;
12597;SDS011;6364;53.590;9.956;2022-10-16T14:33:00;5.45;;;1.25;;
12597;SDS011;6364;53.590;9.956;2022-10-16T14:35:37;4.85;;;1.23;;
12597;SDS011;6364;53.590;9.956;2022-10-16T14:38:04;4.47;;;1.33;;
12597;SDS011;6364;53.590;9.956;2022-10-16T14:40:31;5.88;;;1.13;;
12597;SDS011;6364;53.590;9.956;2022-10-16T14:42:58;3.92;;;1.23;;
12597;SDS011;6364;53.590;9.956;2022-10-16T14:45:26;6.00;;;1.40;;
12597;SDS011;6364;53.590;9.956;2022-10-16T14:47:54;3.22;;;1.38;;
12597;SDS011;6364;53.590;9.956;2022-10-16T14:50:23;6.22;;;1.50;;
12597;SDS011;6364;53.590;9.956;2022-10-16T14:52:49;5.97;;;1.60;;
12597;SDS011;6364;53.590;9.956;2022-10-16T14:55:14;10.98;;;1.40;;
12597;SDS011;6364;53.590;9.956;2022-10-16T14:57:40;7.95;;;1.90;;
12597;SDS011;6364;53.590;9.956;2022-10-16T15:00:09;7.82;;;1.65;;
12597;SDS011;6364;53.590;9.956;2022-10-16T15:02:38;6.38;;;1.90;;
12597;SDS011;6364;53.590;9.956;2022-10-16T15:05:11;7.70;;;1.55;;
12597;SDS011;6364;53.590;9.956;2022-10-16T15:07:41;6.32;;;1.40;;
12597;SDS011;6364;53.590;9.956;2022-10-16T15:10:07;9.18;;;1.63;;
12597;SDS011;6364;53.590;9.956;2022-10-16T15:12:32;7.35;;;1.40;;
12597;SDS011;6364;53.590;9.956;2022-10-16T15:14:58;7.15;;;1.73;;
12597;SDS011;6364;53.590;9.956;2022-10-16T15:17:23;6.85;;;1.67;;
12597;SDS011;6364;53.590;9.956;2022-10-16T15:19:48;4.47;;;1.65;;
12597;SDS011;6364;53.590;9.956;2022-10-16T15:22:14;8.13;;;2.55;;
12597;SDS011;6364;53.590;9.956;2022-10-16T15:24:39;6.60;;;1.83;;
12597;SDS011;6364;53.590;9.956;2022-10-16T15:27:05;6.55;;;2.08;;
12597;SDS011;6364;53.590;9.956;2022-10-16T15:29:30;5.10;;;2.00;;
12597;SDS011;6364;53.590;9.956;2022-10-16T15:31:56;8.95;;;1.70;;
12597;SDS011;6364;53.590;9.956;2022-10-16T15:34:21;6.72;;;1.50;;
12597;SDS011;6364;53.590;9.956;2022-10-16T15:36:46;6.18;;;1.63;;
12597;SDS011;6364;53.590;9.956;2022-10-16T15:39:12;7.78;;;2.75;;
12597;SDS011;6364;53.590;9.956;2022-10-16T15:41:42;7.53;;;2.80;;
12597;SDS011;6364;53.590;9.956;2022-10-16T15:44:08;6.72;;;2.30;;
12597;SDS011;6364;53.590;9.956;2022-10-16T15:46:33;8.02;;;2.05;;
12597;SDS011;6364;53.590;9.956;2022-10-16T15:48:59;6.18;;;2.40;;
12597;SDS011;6364;53.590;9.956;2022-10-16T15:51:26;10.90;;;2.40;;
12597;SDS011;6364;53.590;9.956;2022-10-16T15:53:57;11.38;;;1.90;;
12597;SDS011;6364;53.590;9.956;2022-10-16T15:56:23;6.78;;;1.85;;
12597;SDS011;6364;53.590;9.956;2022-10-16T15:58:50;8.52;;;1.95;;
12597;SDS011;6364;53.590;9.956;2022-10-16T16:01:16;10.25;;;1.92;;
12597;SDS011;6364;53.590;9.956;2022-10-16T16:03:41;6.85;;;2.55;;
12597;SDS011;6364;53.590;9.956;2022-10-16T16:06:07;11.98;;;6.30;;
12597;SDS011;6364;53.590;9.956;2022-10-16T16:08:34;11.90;;;3.15;;
12597;SDS011;6364;53.590;9.956;2022-10-16T16:11:00;7.97;;;1.88;;
12597;SDS011;6364;53.590;9.956;2022-10-16T16:13:26;7.90;;;2.78;;
12597;SDS011;6364;53.590;9.956;2022-10-16T16:15:52;5.45;;;1.70;;
12597;SDS011;6364;53.590;9.956;2022-10-16T16:18:17;3.95;;;1.85;;
12597;SDS011;6364;53.590;9.956;2022-10-16T16:20:43;5.65;;;3.00;;
12597;SDS011;6364;53.590;9.956;2022-10-16T16:23:08;11.23;;;4.25;;
12597;SDS011;6364;53.590;9.956;2022-10-16T16:25:33;9.70;;;2.33;;
12597;SDS011;6364;53.590;9.956;2022-10-16T16:27:59;13.77;;;2.42;;
12597;SDS011;6364;53.590;9.956;2022-10-16T16:30:24;7.88;;;2.67;;
12597;SDS011;6364;53.590;9.956;2022-10-16T16:32:49;6.68;;;4.00;;
12597;SDS011;6364;53.590;9.956;2022-10-16T16:35:15;8.75;;;4.30;;
12597;SDS011;6364;53.590;9.956;2022-10-16T16:37:40;7.50;;;2.88;;
12597;SDS011;6364;53.590;9.956;2022-10-16T16:40:05;6.13;;;2.45;;
12597;SDS011;6364;53.590;9.956;2022-10-16T16:42:31;10.07;;;3.50;;
12597;SDS011;6364;53.590;9.956;2022-10-16T16:44:56;8.60;;;3.65;;
12597;SDS011;6364;53.590;9.956;2022-10-16T16:47:21;8.23;;;3.30;;
12597;SDS011;6364;53.590;9.956;2022-10-16T16:49:47;7.68;;;3.50;;
12597;SDS011;6364;53.590;9.956;2022-10-16T16:52:12;11.05;;;3.13;;
12597;SDS011;6364;53.590;9.956;2022-10-16T16:54:38;11.32;;;3.20;;
12597;SDS011;6364;53.590;9.956;2022-10-16T16:57:03;10.00;;;3.03;;
12597;SDS011;6364;53.590;9.956;2022-10-16T16:59:29;7.00;;;2.58;;
12597;SDS011;6364;53.590;9.956;2022-10-16T17:01:57;9.18;;;3.08;;
12597;SDS011;6364;53.590;9.956;2022-10-16T17:04:23;7.35;;;3.10;;
12597;SDS011;6364;53.590;9.956;2022-10-16T17:06:48;12.00;;;3.08;;
12597;SDS011;6364;53.590;9.956;2022-10-16T17:09:13;7.93;;;3.00;;
12597;SDS011;6364;53.590;9.956;2022-10-16T17:11:40;8.00;;;3.08;;
12597;SDS011;6364;53.590;9.956;2022-10-16T17:14:09;7.53;;;3.10;;